Smooth Rock Falls, Canada
Current Conditions -  °F | °C
As of 9:00 AM on Monday 26 Jan 2015 (Local Time) from CYYU Reporting Station
Overcast Overcast  
Wind Chill: -22°   Ceiling: 10000
Heat Index: -8°   Visibility: 15mi
Dew Point: -11°   Wind: 7mph
Humidity: 84%   Direction: 160°SSE
Pressure: 29.99"   Gusts: NA
Location:  49.28°N, 81.63°W
Report Text: CYYU 261400Z 16006KT 15SM FEW040 BKN100 OVC240 M22/M24 A2999 RMK SC2AC4CS2 SLP186
Loading
Personal Weather Stations






























Interactive Weather Map New forecast layout! Learn more

10-Day Weather Forecast

Advertisements
Track Severe Weather on mobile